Time;durP1;ratioP1;P1;durP2;ratioP2;P2;SDS_P1;SDS_P2;PMS_P1;PMS_P2;Temp;Humidity;BMP_temperature;BMP_pressure;BME280_temperature;BME280_humidity;BME280_pressure;Samples;Min_cycle;Max_cycle;Signal;HPM_P1;HPM_P2
2024/01/03 00:02:07;;;;;;;12.50;5.97;;;;;;;;;;5090016;28;20031;-70
2024/01/03 00:04:33;;;;;;;4.35;4.00;;;;;;;;;;5088087;28;20028;-71
2024/01/03 00:06:59;;;;;;;9.75;5.55;;;;;;;;;;5088620;28;20081;-71
2024/01/03 00:09:25;;;;;;;9.88;6.05;;;;;;;;;;5090250;28;20104;-70
2024/01/03 00:11:52;;;;;;;6.55;4.70;;;;;;;;;;5073904;28;20036;-71
2024/01/03 00:14:22;;;;;;;5.97;5.18;;;;;;;;;;5072492;28;20031;-71
2024/01/03 00:16:49;;;;;;;5.97;5.32;;;;;;;;;;5089424;28;20150;-71
2024/01/03 00:19:16;;;;;;;4.82;3.67;;;;;;;;;;5071619;28;20504;-71
2024/01/03 00:21:42;;;;;;;6.00;5.40;;;;;;;;;;5089296;28;20868;-71
2024/01/03 00:24:10;;;;;;;5.50;4.22;;;;;;;;;;5089652;28;20033;-71
2024/01/03 00:26:36;;;;;;;19.08;7.10;;;;;;;;;;5071471;28;20067;-72
2024/01/03 00:29:03;;;;;;;5.80;5.28;;;;;;;;;;5071249;28;20032;-71
2024/01/03 00:31:38;;;;;;;7.00;5.40;;;;;;;;;;5070563;28;20055;-71
2024/01/03 00:34:05;;;;;;;3.50;3.20;;;;;;;;;;5071526;28;20047;-71
2024/01/03 00:36:31;;;;;;;7.82;5.85;;;;;;;;;;5088738;28;20043;-71
2024/01/03 00:38:57;;;;;;;4.78;4.43;;;;;;;;;;5070843;28;20093;-71
2024/01/03 00:41:23;;;;;;;5.40;4.03;;;;;;;;;;5087645;28;20040;-70
2024/01/03 00:43:49;;;;;;;5.40;4.90;;;;;;;;;;5087420;28;20032;-70
2024/01/03 00:46:15;;;;;;;5.45;5.05;;;;;;;;;;5072521;28;20040;-70
2024/01/03 00:48:41;;;;;;;5.25;4.88;;;;;;;;;;5087485;28;20032;-70
2024/01/03 00:51:07;;;;;;;9.10;7.07;;;;;;;;;;5088977;28;20081;-70
2024/01/03 00:53:33;;;;;;;3.28;3.08;;;;;;;;;;5089357;28;20043;-71
2024/01/03 00:55:59;;;;;;;6.97;4.93;;;;;;;;;;5071038;28;20077;-70
2024/01/03 00:58:25;;;;;;;3.25;3.10;;;;;;;;;;5087321;28;20176;-70
2024/01/03 01:00:51;;;;;;;8.93;4.30;;;;;;;;;;5089284;28;20089;-70
2024/01/03 01:03:18;;;;;;;4.90;3.55;;;;;;;;;;5089696;28;20074;-71
2024/01/03 01:05:44;;;;;;;9.40;6.47;;;;;;;;;;5087081;28;20060;-70
2024/01/03 01:08:10;;;;;;;5.88;5.35;;;;;;;;;;5087200;28;20040;-71
2024/01/03 01:10:36;;;;;;;7.38;5.45;;;;;;;;;;5104281;28;20035;-70
2024/01/03 01:13:02;;;;;;;6.90;5.38;;;;;;;;;;5087091;28;20067;-71
2024/01/03 01:15:29;;;;;;;7.05;6.05;;;;;;;;;;5087152;28;20059;-70
2024/01/03 01:17:55;;;;;;;3.90;3.60;;;;;;;;;;5087363;28;20047;-70
2024/01/03 01:20:20;;;;;;;7.38;5.45;;;;;;;;;;5087413;28;20028;-70
2024/01/03 01:22:46;;;;;;;5.63;4.78;;;;;;;;;;5088224;28;20032;-71
2024/01/03 01:25:12;;;;;;;5.70;5.20;;;;;;;;;;5053736;28;20681;-70
2024/01/03 01:27:38;;;;;;;9.75;6.40;;;;;;;;;;5086828;28;20484;-70
2024/01/03 01:30:04;;;;;;;7.90;7.00;;;;;;;;;;5087448;28;20024;-70
2024/01/03 01:32:31;;;;;;;5.70;4.97;;;;;;;;;;5086709;28;20063;-70
2024/01/03 01:34:57;;;;;;;3.55;3.28;;;;;;;;;;5087246;28;20457;-70
2024/01/03 01:37:23;;;;;;;4.85;4.35;;;;;;;;;;5089623;28;20119;-70
2024/01/03 01:39:49;;;;;;;6.30;5.63;;;;;;;;;;5070619;28;20504;-70
2024/01/03 01:42:15;;;;;;;7.63;5.65;;;;;;;;;;5086875;28;20507;-71
2024/01/03 01:44:41;;;;;;;6.70;5.75;;;;;;;;;;5088048;28;20032;-71
2024/01/03 01:47:11;;;;;;;9.98;5.78;;;;;;;;;;5088241;28;20055;-71
2024/01/03 01:49:39;;;;;;;14.27;9.35;;;;;;;;;;5088052;28;20047;-71
2024/01/03 01:52:06;;;;;;;7.10;6.47;;;;;;;;;;5088074;28;20059;-71
2024/01/03 01:54:32;;;;;;;9.07;8.20;;;;;;;;;;5053229;28;20070;-70
2024/01/03 01:56:58;;;;;;;5.15;4.75;;;;;;;;;;5087188;28;20039;-71
2024/01/03 01:59:24;;;;;;;7.00;6.30;;;;;;;;;;5087244;28;20032;-70
2024/01/03 02:01:50;;;;;;;5.43;4.93;;;;;;;;;;5086563;28;20116;-70
2024/01/03 02:04:16;;;;;;;5.20;4.70;;;;;;;;;;5088204;28;20077;-72
2024/01/03 02:06:42;;;;;;;7.70;6.78;;;;;;;;;;5086636;28;20515;-72
2024/01/03 02:09:08;;;;;;;8.20;6.20;;;;;;;;;;5088167;28;20547;-72
2024/01/03 02:11:34;;;;;;;5.05;4.68;;;;;;;;;;5090661;28;20408;-71
2024/01/03 02:14:00;;;;;;;6.38;5.78;;;;;;;;;;5094579;28;20488;-72
2024/01/03 02:16:26;;;;;;;7.25;6.65;;;;;;;;;;5074537;28;20031;-71
2024/01/03 02:18:52;;;;;;;3.55;3.35;;;;;;;;;;5091930;28;20123;-72
2024/01/03 02:21:38;;;;;;;5.50;5.00;;;;;;;;;;5091057;28;20036;-72
2024/01/03 02:24:04;;;;;;;8.02;6.32;;;;;;;;;;5090469;28;20127;-71
2024/01/03 02:26:30;;;;;;;5.00;4.60;;;;;;;;;;5091792;28;20057;-71
2024/01/03 02:28:56;;;;;;;4.30;3.85;;;;;;;;;;5090540;28;20032;-72
2024/01/03 02:31:21;;;;;;;5.05;4.63;;;;;;;;;;5092670;28;20106;-71
2024/01/03 02:33:47;;;;;;;6.47;4.80;;;;;;;;;;5074780;28;20036;-71
2024/01/03 02:36:13;;;;;;;7.07;4.15;;;;;;;;;;5089925;28;20031;-71
2024/01/03 02:38:41;;;;;;;9.57;4.50;;;;;;;;;;5106272;28;20040;-71
2024/01/03 02:41:07;;;;;;;4.20;3.92;;;;;;;;;;5073986;28;20511;-70
2024/01/03 02:43:33;;;;;;;4.68;4.25;;;;;;;;;;5090636;28;20046;-71
2024/01/03 02:45:59;;;;;;;3.67;3.47;;;;;;;;;;5091710;28;20123;-71
2024/01/03 02:48:25;;;;;;;15.65;5.07;;;;;;;;;;5091229;28;20036;-71
2024/01/03 02:50:51;;;;;;;5.28;4.85;;;;;;;;;;5073041;28;20032;-71
2024/01/03 02:53:17;;;;;;;5.47;4.97;;;;;;;;;;5091301;28;20040;-72
2024/01/03 02:55:42;;;;;;;6.03;5.28;;;;;;;;;;5089834;28;20043;-70
2024/01/03 02:58:08;;;;;;;5.78;5.30;;;;;;;;;;5090206;28;20047;-71
2024/01/03 03:00:36;;;;;;;5.43;4.93;;;;;;;;;;5093684;28;20064;-72
2024/01/03 03:03:03;;;;;;;6.93;4.32;;;;;;;;;;5092148;28;20545;-70
2024/01/03 03:05:29;;;;;;;7.57;6.47;;;;;;;;;;5095359;28;20066;-70
2024/01/03 03:07:55;;;;;;;5.28;4.78;;;;;;;;;;5094681;28;20093;-70
2024/01/03 03:10:21;;;;;;;5.00;4.50;;;;;;;;;;5091200;28;20406;-71
2024/01/03 03:12:47;;;;;;;7.80;6.95;;;;;;;;;;5089137;28;20040;-71
2024/01/03 03:15:13;;;;;;;6.43;5.78;;;;;;;;;;5090808;28;20032;-70
2024/01/03 03:17:40;;;;;;;6.03;4.20;;;;;;;;;;5089149;28;20051;-70
2024/01/03 03:20:07;;;;;;;5.43;4.93;;;;;;;;;;5090910;28;20032;-70
2024/01/03 03:22:33;;;;;;;6.95;4.90;;;;;;;;;;5088744;28;20044;-71
2024/01/03 03:24:59;;;;;;;4.32;4.03;;;;;;;;;;5090640;28;20384;-71
2024/01/03 03:27:25;;;;;;;4.90;4.53;;;;;;;;;;5072261;28;20046;-72
2024/01/03 03:29:51;;;;;;;4.95;4.55;;;;;;;;;;5088973;28;20441;-70
2024/01/03 03:32:17;;;;;;;5.97;5.40;;;;;;;;;;5081986;28;20055;-71
2024/01/03 03:34:43;;;;;;;4.88;4.45;;;;;;;;;;5084984;28;20500;-70
2024/01/03 03:37:09;;;;;;;3.45;3.22;;;;;;;;;;5090249;28;20039;-70
2024/01/03 03:39:35;;;;;;;3.10;3.00;;;;;;;;;;5089996;28;20035;-69
2024/01/03 03:42:01;;;;;;;6.55;5.95;;;;;;;;;;5089186;28;20059;-70
2024/01/03 03:44:28;;;;;;;12.90;8.25;;;;;;;;;;5091169;28;20028;-70
2024/01/03 03:46:54;;;;;;;3.80;3.22;;;;;;;;;;5089845;28;20181;-69
2024/01/03 03:49:20;;;;;;;6.40;5.90;;;;;;;;;;5089925;28;20388;-69
2024/01/03 03:51:46;;;;;;;5.80;5.13;;;;;;;;;;5071580;28;20043;-71
2024/01/03 03:54:11;;;;;;;11.35;7.95;;;;;;;;;;5089818;28;20216;-70
2024/01/03 03:56:37;;;;;;;8.32;7.40;;;;;;;;;;5088515;28;20032;-70
2024/01/03 03:59:04;;;;;;;7.00;6.38;;;;;;;;;;5089329;28;20036;-71
2024/01/03 04:01:29;;;;;;;5.75;5.15;;;;;;;;;;5071439;28;20488;-70
2024/01/03 04:03:55;;;;;;;6.18;5.07;;;;;;;;;;5071482;28;20085;-71
2024/01/03 04:06:21;;;;;;;5.45;4.95;;;;;;;;;;5088453;28;20028;-71
2024/01/03 04:08:48;;;;;;;4.80;4.38;;;;;;;;;;5089569;28;20039;-69
2024/01/03 04:11:15;;;;;;;6.78;5.75;;;;;;;;;;5089762;28;20404;-70
2024/01/03 04:13:41;;;;;;;6.60;6.00;;;;;;;;;;5091441;28;20047;-70
2024/01/03 04:16:07;;;;;;;5.10;4.60;;;;;;;;;;5111125;28;20035;-70
2024/01/03 04:18:33;;;;;;;4.43;4.13;;;;;;;;;;5110909;28;20126;-70
2024/01/03 04:21:00;;;;;;;6.05;5.55;;;;;;;;;;5108854;28;20038;-71
2024/01/03 04:23:26;;;;;;;5.10;4.30;;;;;;;;;;5109803;28;20093;-71
2024/01/03 04:25:52;;;;;;;6.75;6.05;;;;;;;;;;5108422;28;20035;-71
2024/01/03 04:28:18;;;;;;;6.82;5.75;;;;;;;;;;5108675;28;20817;-70
2024/01/03 04:30:44;;;;;;;11.40;8.85;;;;;;;;;;5111108;28;20084;-70
2024/01/03 04:33:10;;;;;;;7.57;6.28;;;;;;;;;;5109094;28;20162;-70
2024/01/03 04:35:36;;;;;;;8.20;5.72;;;;;;;;;;5109414;28;20079;-70
2024/01/03 04:38:03;;;;;;;7.13;5.85;;;;;;;;;;5091078;28;20031;-71
2024/01/03 04:40:29;;;;;;;12.80;5.53;;;;;;;;;;5108234;28;20039;-70
2024/01/03 04:42:55;;;;;;;8.82;7.28;;;;;;;;;;5074629;28;20118;-70
2024/01/03 04:45:21;;;;;;;12.00;6.15;;;;;;;;;;5109819;28;20601;-69
2024/01/03 04:47:47;;;;;;;6.18;5.68;;;;;;;;;;5124710;27;20422;-70
2024/01/03 04:50:14;;;;;;;9.50;5.68;;;;;;;;;;5109539;28;20035;-70
2024/01/03 04:52:40;;;;;;;5.18;4.68;;;;;;;;;;5109453;28;20048;-71
2024/01/03 04:55:06;;;;;;;9.02;6.55;;;;;;;;;;5109749;28;20047;-70
2024/01/03 04:57:34;;;;;;;6.60;5.80;;;;;;;;;;5109441;28;20063;-71
2024/01/03 05:00:01;;;;;;;12.63;5.57;;;;;;;;;;5108305;28;20035;-71
2024/01/03 05:02:30;;;;;;;4.70;4.03;;;;;;;;;;5108261;28;20040;-70
2024/01/03 05:04:55;;;;;;;4.93;4.55;;;;;;;;;;5109426;27;20096;-70
2024/01/03 05:07:21;;;;;;;6.43;5.13;;;;;;;;;;5108411;28;20035;-70
2024/01/03 05:09:47;;;;;;;6.50;4.55;;;;;;;;;;5109221;28;20086;-70
2024/01/03 05:12:13;;;;;;;5.53;5.00;;;;;;;;;;5107900;28;20662;-70
2024/01/03 05:14:39;;;;;;;15.30;6.60;;;;;;;;;;5077670;28;20036;-71
2024/01/03 05:17:05;;;;;;;4.32;3.72;;;;;;;;;;5088859;28;20085;-70
2024/01/03 05:19:31;;;;;;;5.35;4.82;;;;;;;;;;5109011;28;20035;-70
2024/01/03 05:21:58;;;;;;;9.75;7.57;;;;;;;;;;5108990;28;20039;-70
2024/01/03 05:24:24;;;;;;;13.40;7.97;;;;;;;;;;5107981;28;20508;-71
2024/01/03 05:26:49;;;;;;;9.18;8.25;;;;;;;;;;5109118;28;20043;-70
2024/01/03 05:29:15;;;;;;;7.88;6.20;;;;;;;;;;5126783;28;20028;-70
2024/01/03 05:31:41;;;;;;;6.50;5.93;;;;;;;;;;5121672;28;20098;-70
2024/01/03 05:34:08;;;;;;;5.22;4.72;;;;;;;;;;5109241;28;20035;-70
2024/01/03 05:36:34;;;;;;;8.98;7.15;;;;;;;;;;5109280;28;20077;-71
2024/01/03 05:39:00;;;;;;;5.57;5.07;;;;;;;;;;5107640;28;20123;-71
2024/01/03 05:41:26;;;;;;;6.35;5.75;;;;;;;;;;5107565;28;20036;-70
2024/01/03 05:43:52;;;;;;;5.40;5.00;;;;;;;;;;5107177;28;20047;-71
2024/01/03 05:46:18;;;;;;;7.40;6.60;;;;;;;;;;5109571;28;20049;-70
2024/01/03 05:48:44;;;;;;;7.28;6.60;;;;;;;;;;5112828;28;20092;-69
2024/01/03 05:51:10;;;;;;;5.00;4.70;;;;;;;;;;5111276;28;20027;-69
2024/01/03 05:53:36;;;;;;;4.28;4.07;;;;;;;;;;5111460;28;20651;-71
2024/01/03 05:56:02;;;;;;;2.65;2.55;;;;;;;;;;5111538;28;20028;-70
2024/01/03 05:58:28;;;;;;;3.78;3.60;;;;;;;;;;5112848;28;20046;-70
2024/01/03 06:00:54;;;;;;;6.45;5.88;;;;;;;;;;5112725;28;20100;-71
2024/01/03 06:03:20;;;;;;;6.60;5.40;;;;;;;;;;5112778;28;20031;-71
2024/01/03 06:05:45;;;;;;;6.38;5.88;;;;;;;;;;5111616;28;20442;-71
2024/01/03 06:08:12;;;;;;;4.35;4.05;;;;;;;;;;5112795;28;20100;-71
2024/01/03 06:10:37;;;;;;;4.35;3.97;;;;;;;;;;5095228;28;20115;-71
2024/01/03 06:13:03;;;;;;;6.55;4.85;;;;;;;;;;5114527;28;20140;-70
2024/01/03 06:15:29;;;;;;;7.97;6.72;;;;;;;;;;5094104;28;20033;-71
2024/01/03 06:17:55;;;;;;;6.18;5.70;;;;;;;;;;5094417;28;20072;-70
2024/01/03 06:20:21;;;;;;;7.20;6.18;;;;;;;;;;5076732;28;20036;-70
2024/01/03 06:22:47;;;;;;;5.90;5.32;;;;;;;;;;5094921;28;20040;-70
2024/01/03 06:25:13;;;;;;;6.25;4.80;;;;;;;;;;5095279;28;20110;-70
2024/01/03 06:27:38;;;;;;;7.00;4.97;;;;;;;;;;5076920;28;20035;-70
2024/01/03 06:30:05;;;;;;;8.55;6.30;;;;;;;;;;5093562;28;20643;-70
2024/01/03 06:32:30;;;;;;;7.60;7.00;;;;;;;;;;5090653;28;20060;-69
2024/01/03 06:34:56;;;;;;;5.80;5.20;;;;;;;;;;5084626;28;20104;-71
2024/01/03 06:37:22;;;;;;;16.08;7.80;;;;;;;;;;5078835;28;20039;-71
2024/01/03 06:39:49;;;;;;;3.72;3.60;;;;;;;;;;5086659;28;20081;-72
2024/01/03 06:42:15;;;;;;;10.20;9.18;;;;;;;;;;5086772;28;20028;-71
2024/01/03 06:44:41;;;;;;;11.80;8.70;;;;;;;;;;5084517;28;20088;-72
2024/01/03 06:47:06;;;;;;;5.82;5.43;;;;;;;;;;5073605;28;20040;-72
2024/01/03 06:49:32;;;;;;;6.15;4.97;;;;;;;;;;5091497;28;20555;-73
2024/01/03 06:51:58;;;;;;;7.43;6.72;;;;;;;;;;5084676;28;20085;-71
2024/01/03 06:54:24;;;;;;;7.38;6.78;;;;;;;;;;5078460;28;20467;-72
2024/01/03 06:56:50;;;;;;;8.60;7.72;;;;;;;;;;5085056;28;20515;-71
2024/01/03 06:59:16;;;;;;;7.28;6.57;;;;;;;;;;5083940;28;20028;-72
2024/01/03 07:01:42;;;;;;;6.35;5.68;;;;;;;;;;5082748;28;20035;-72
2024/01/03 07:04:07;;;;;;;8.25;7.40;;;;;;;;;;5081451;28;20047;-70
2024/01/03 07:06:33;;;;;;;9.43;7.30;;;;;;;;;;5081241;28;20042;-69
2024/01/03 07:08:59;;;;;;;3.90;3.70;;;;;;;;;;5074162;28;20065;-70
2024/01/03 07:11:25;;;;;;;6.40;5.72;;;;;;;;;;5086148;28;20261;-71
2024/01/03 07:13:51;;;;;;;7.65;4.57;;;;;;;;;;5078032;28;20136;-70
2024/01/03 07:16:18;;;;;;;8.13;6.68;;;;;;;;;;5078510;28;20024;-70
2024/01/03 07:18:43;;;;;;;5.25;4.13;;;;;;;;;;5060888;28;20031;-69
2024/01/03 07:21:09;;;;;;;5.70;5.25;;;;;;;;;;5077255;28;20021;-69
2024/01/03 07:23:35;;;;;;;4.05;3.85;;;;;;;;;;5082225;28;20454;-69
2024/01/03 07:26:01;;;;;;;7.60;6.82;;;;;;;;;;5077959;28;20028;-70
2024/01/03 07:28:27;;;;;;;8.80;6.30;;;;;;;;;;5084666;28;20040;-69
2024/01/03 07:30:53;;;;;;;11.07;9.15;;;;;;;;;;5083688;28;20023;-69
2024/01/03 07:33:19;;;;;;;7.88;7.07;;;;;;;;;;5059428;28;20044;-72
2024/01/03 07:35:45;;;;;;;8.80;7.55;;;;;;;;;;5079613;28;20443;-70
2024/01/03 07:38:10;;;;;;;11.20;9.10;;;;;;;;;;5080162;28;20615;-72
2024/01/03 07:40:36;;;;;;;11.70;9.70;;;;;;;;;;5075877;28;20052;-72
2024/01/03 07:43:02;;;;;;;6.35;5.78;;;;;;;;;;5081034;28;20074;-71
2024/01/03 07:45:28;;;;;;;8.27;7.55;;;;;;;;;;5077668;28;20109;-70
2024/01/03 07:47:54;;;;;;;6.03;5.45;;;;;;;;;;5080480;28;20052;-70
2024/01/03 07:50:20;;;;;;;9.70;7.95;;;;;;;;;;5077065;28;20028;-70
2024/01/03 07:52:46;;;;;;;6.80;6.13;;;;;;;;;;5087408;28;20062;-70
2024/01/03 07:55:12;;;;;;;8.73;7.85;;;;;;;;;;5084614;28;20028;-70
2024/01/03 07:57:37;;;;;;;10.60;9.57;;;;;;;;;;5086053;28;20047;-69
2024/01/03 08:00:04;;;;;;;13.35;7.15;;;;;;;;;;5086288;28;20096;-70
2024/01/03 08:02:31;;;;;;;6.53;6.03;;;;;;;;;;5063832;28;20054;-70
2024/01/03 08:04:57;;;;;;;7.03;5.65;;;;;;;;;;5068726;28;20112;-70
2024/01/03 08:07:23;;;;;;;14.05;11.25;;;;;;;;;;5067480;28;20051;-69
2024/01/03 08:09:50;;;;;;;15.65;11.43;;;;;;;;;;5066731;28;20573;-70
2024/01/03 08:12:17;;;;;;;6.13;5.57;;;;;;;;;;5067518;28;20136;-70
2024/01/03 08:14:43;;;;;;;9.05;7.22;;;;;;;;;;5068892;28;20025;-70
2024/01/03 08:17:09;;;;;;;8.95;8.02;;;;;;;;;;5068928;28;20048;-71
2024/01/03 08:19:35;;;;;;;6.60;6.10;;;;;;;;;;5082754;28;20562;-71
2024/01/03 08:22:01;;;;;;;9.40;7.32;;;;;;;;;;5085857;28;20063;-71
2024/01/03 08:24:27;;;;;;;8.30;7.20;;;;;;;;;;5061882;28;20028;-71
2024/01/03 08:26:54;;;;;;;12.07;9.95;;;;;;;;;;5068701;28;20039;-71
2024/01/03 08:29:19;;;;;;;11.07;9.90;;;;;;;;;;5069289;28;20040;-71
2024/01/03 08:31:51;;;;;;;11.25;9.85;;;;;;;;;;5069471;28;20056;-70
2024/01/03 08:34:17;;;;;;;4.53;4.15;;;;;;;;;;5067281;28;20040;-70
2024/01/03 08:36:44;;;;;;;7.93;7.15;;;;;;;;;;5068292;28;20114;-70
2024/01/03 08:39:11;;;;;;;7.65;6.95;;;;;;;;;;5068316;28;20527;-72
2024/01/03 08:41:37;;;;;;;21.55;9.65;;;;;;;;;;5084051;28;20045;-70
2024/01/03 08:44:05;;;;;;;7.53;5.95;;;;;;;;;;5083488;28;20105;-71
2024/01/03 08:46:34;;;;;;;4.28;3.90;;;;;;;;;;5088429;28;20063;-71
2024/01/03 08:49:02;;;;;;;7.05;5.75;;;;;;;;;;5097218;28;20032;-71
2024/01/03 08:51:28;;;;;;;3.63;3.30;;;;;;;;;;5090392;28;20035;-72
2024/01/03 08:53:54;;;;;;;9.27;5.85;;;;;;;;;;5054753;28;20040;-71
2024/01/03 08:56:20;;;;;;;5.35;4.88;;;;;;;;;;5067207;28;20039;-71
2024/01/03 08:58:46;;;;;;;4.00;3.72;;;;;;;;;;5081860;28;20538;-71
2024/01/03 09:01:15;;;;;;;7.13;6.38;;;;;;;;;;5090203;28;20050;-71
2024/01/03 09:03:42;;;;;;;3.92;3.70;;;;;;;;;;5089553;28;20135;-71
2024/01/03 09:06:08;;;;;;;8.38;6.65;;;;;;;;;;5088407;28;20043;-71
2024/01/03 09:08:34;;;;;;;7.63;6.63;;;;;;;;;;5050337;28;20510;-70
2024/01/03 09:11:00;;;;;;;4.93;4.53;;;;;;;;;;5068276;28;20036;-72
2024/01/03 09:13:28;;;;;;;7.20;6.55;;;;;;;;;;5062317;28;20040;-71
2024/01/03 09:15:53;;;;;;;5.25;4.68;;;;;;;;;;5088174;28;20039;-71
2024/01/03 09:18:22;;;;;;;10.48;6.95;;;;;;;;;;5088765;28;20020;-72
2024/01/03 09:20:48;;;;;;;6.65;6.07;;;;;;;;;;5087794;28;20085;-71
2024/01/03 09:23:14;;;;;;;10.38;8.23;;;;;;;;;;5087564;28;20049;-70
2024/01/03 09:25:40;;;;;;;9.85;6.57;;;;;;;;;;5086847;28;20043;-70
2024/01/03 09:28:10;;;;;;;6.13;5.57;;;;;;;;;;5069486;28;20016;-70
2024/01/03 09:30:36;;;;;;;9.77;8.80;;;;;;;;;;5086714;28;20044;-69
2024/01/03 09:33:02;;;;;;;7.13;6.05;;;;;;;;;;5087125;28;20048;-70
2024/01/03 09:35:28;;;;;;;6.80;6.05;;;;;;;;;;5087870;28;20385;-70
2024/01/03 09:37:54;;;;;;;5.95;5.43;;;;;;;;;;5086266;28;20535;-70
2024/01/03 09:40:20;;;;;;;3.08;2.97;;;;;;;;;;5087503;28;20515;-72
2024/01/03 09:42:46;;;;;;;12.68;7.32;;;;;;;;;;5086230;28;20037;-71
2024/01/03 09:45:12;;;;;;;11.57;7.75;;;;;;;;;;5085837;28;20043;-70
2024/01/03 09:47:38;;;;;;;7.70;6.95;;;;;;;;;;5086241;28;20032;-72
2024/01/03 09:50:04;;;;;;;7.43;6.10;;;;;;;;;;5105770;28;20032;-72
2024/01/03 09:52:30;;;;;;;11.95;8.70;;;;;;;;;;5108863;28;20048;-71
2024/01/03 09:54:56;;;;;;;9.18;6.72;;;;;;;;;;5070601;28;20044;-71
2024/01/03 09:57:22;;;;;;;10.52;8.93;;;;;;;;;;5070953;28;20103;-71
2024/01/03 09:59:47;;;;;;;8.63;6.90;;;;;;;;;;5086492;28;20582;-71
2024/01/03 10:02:14;;;;;;;12.48;8.00;;;;;;;;;;5086159;28;20458;-70
2024/01/03 10:04:46;;;;;;;5.53;4.88;;;;;;;;;;5051800;28;20539;-71
2024/01/03 10:07:12;;;;;;;11.07;8.48;;;;;;;;;;5068370;28;20423;-70
2024/01/03 10:09:41;;;;;;;3.97;3.72;;;;;;;;;;5065767;28;20032;-71
2024/01/03 10:12:16;;;;;;;9.52;7.38;;;;;;;;;;5066857;28;20456;-70
2024/01/03 10:14:42;;;;;;;10.68;6.28;;;;;;;;;;5067183;28;20071;-70
2024/01/03 10:17:09;;;;;;;8.85;7.93;;;;;;;;;;5067023;28;20033;-69
2024/01/03 10:19:35;;;;;;;5.20;4.80;;;;;;;;;;5066322;28;20039;-70
2024/01/03 10:22:02;;;;;;;17.38;5.97;;;;;;;;;;5067051;28;20121;-72
2024/01/03 10:24:28;;;;;;;7.75;6.20;;;;;;;;;;5082224;28;20036;-71
2024/01/03 10:26:54;;;;;;;9.27;7.63;;;;;;;;;;5066807;28;20119;-70
2024/01/03 10:29:20;;;;;;;9.52;8.38;;;;;;;;;;5081871;28;20028;-71
2024/01/03 10:31:46;;;;;;;8.85;7.95;;;;;;;;;;5066168;28;20068;-71
2024/01/03 10:34:16;;;;;;;8.77;7.97;;;;;;;;;;5070328;28;20677;-71
2024/01/03 10:36:43;;;;;;;8.65;5.18;;;;;;;;;;5070490;28;20032;-71
2024/01/03 10:39:10;;;;;;;16.77;11.73;;;;;;;;;;5069876;28;20098;-70
2024/01/03 10:41:36;;;;;;;22.65;10.30;;;;;;;;;;5070552;28;20032;-71
2024/01/03 10:44:02;;;;;;;10.07;9.02;;;;;;;;;;5068573;28;20025;-70
2024/01/03 10:46:28;;;;;;;5.60;5.15;;;;;;;;;;5081335;28;20044;-71
2024/01/03 10:48:54;;;;;;;12.20;10.38;;;;;;;;;;5090358;28;20028;-71
2024/01/03 10:51:22;;;;;;;13.65;10.75;;;;;;;;;;5089954;28;20063;-71
2024/01/03 10:53:48;;;;;;;12.38;7.85;;;;;;;;;;5090207;28;20032;-71
2024/01/03 10:56:14;;;;;;;9.80;7.10;;;;;;;;;;5089067;28;20089;-71
2024/01/03 10:58:40;;;;;;;9.10;7.57;;;;;;;;;;5088864;28;20036;-71
2024/01/03 11:01:09;;;;;;;8.20;6.85;;;;;;;;;;5090485;28;20032;-70
2024/01/03 11:03:37;;;;;;;8.85;7.30;;;;;;;;;;5089339;28;20032;-70
2024/01/03 11:06:17;;;;;;;10.77;7.95;;;;;;;;;;5089962;28;20036;-70
2024/01/03 11:08:46;;;;;;;5.50;5.07;;;;;;;;;;5089631;28;20040;-70
2024/01/03 11:11:14;;;;;;;10.40;7.18;;;;;;;;;;5072766;28;20495;-70
2024/01/03 11:13:44;;;;;;;11.60;8.55;;;;;;;;;;5093742;28;20031;-71
2024/01/03 11:16:12;;;;;;;9.70;7.07;;;;;;;;;;5104315;28;20036;-70
2024/01/03 11:18:43;;;;;;;10.10;8.32;;;;;;;;;;5099693;28;20039;-70
2024/01/03 11:21:26;;;;;;;8.20;6.93;;;;;;;;;;5090908;28;20032;-71
2024/01/03 11:23:53;;;;;;;7.45;6.63;;;;;;;;;;5090808;28;20032;-70
2024/01/03 11:26:19;;;;;;;4.72;4.30;;;;;;;;;;5089115;28;20040;-71
2024/01/03 11:28:48;;;;;;;7.70;7.05;;;;;;;;;;5088704;28;20031;-70
2024/01/03 11:31:15;;;;;;;7.07;5.85;;;;;;;;;;5087988;28;20104;-71
2024/01/03 11:33:41;;;;;;;6.28;5.78;;;;;;;;;;5090127;28;20128;-71
2024/01/03 11:36:08;;;;;;;12.05;8.93;;;;;;;;;;5071570;28;20055;-70
2024/01/03 11:38:38;;;;;;;10.68;7.82;;;;;;;;;;5090106;28;20403;-70
2024/01/03 11:41:04;;;;;;;9.10;6.55;;;;;;;;;;5088492;28;20032;-71
2024/01/03 11:43:29;;;;;;;9.55;8.55;;;;;;;;;;5089846;28;20522;-71
2024/01/03 11:46:11;;;;;;;8.27;5.47;;;;;;;;;;5089703;28;20034;-70
2024/01/03 11:48:38;;;;;;;20.13;10.63;;;;;;;;;;5090010;28;20032;-70
2024/01/03 11:51:23;;;;;;;15.75;10.65;;;;;;;;;;5084704;28;20024;-71
2024/01/03 11:53:53;;;;;;;10.32;7.57;;;;;;;;;;5067986;28;20052;-69
2024/01/03 11:56:28;;;;;;;6.88;5.90;;;;;;;;;;5067958;28;20032;-69
2024/01/03 11:58:55;;;;;;;10.98;7.85;;;;;;;;;;5069047;28;20170;-69
2024/01/03 12:01:21;;;;;;;14.05;8.98;;;;;;;;;;5068495;28;20032;-70
2024/01/03 12:03:47;;;;;;;15.85;9.57;;;;;;;;;;5071374;28;20089;-69
2024/01/03 12:06:16;;;;;;;9.13;6.32;;;;;;;;;;5089692;28;20766;-69
2024/01/03 12:08:42;;;;;;;21.40;11.30;;;;;;;;;;5088978;28;20516;-69
2024/01/03 12:11:08;;;;;;;11.57;6.80;;;;;;;;;;5087617;28;20105;-69
2024/01/03 12:13:34;;;;;;;10.98;7.75;;;;;;;;;;5088677;28;20040;-69
2024/01/03 12:16:00;;;;;;;14.00;8.70;;;;;;;;;;5087408;28;20157;-70
2024/01/03 12:18:26;;;;;;;10.60;8.20;;;;;;;;;;5088236;28;20217;-69
2024/01/03 12:20:53;;;;;;;17.40;11.68;;;;;;;;;;5089117;28;20521;-69
2024/01/03 12:23:19;;;;;;;10.48;8.77;;;;;;;;;;5104265;28;20115;-69
2024/01/03 12:25:45;;;;;;;13.70;8.18;;;;;;;;;;5070247;28;20043;-69
2024/01/03 12:28:18;;;;;;;8.18;5.65;;;;;;;;;;5070587;28;20071;-69
2024/01/03 12:30:43;;;;;;;7.70;6.07;;;;;;;;;;5070001;28;20137;-69
2024/01/03 12:33:13;;;;;;;18.77;10.68;;;;;;;;;;5088551;28;20184;-69
2024/01/03 12:35:39;;;;;;;20.45;11.15;;;;;;;;;;5088665;28;20084;-69
2024/01/03 12:38:05;;;;;;;12.68;8.27;;;;;;;;;;5088112;28;20059;-69
2024/01/03 12:40:31;;;;;;;19.98;8.43;;;;;;;;;;5073118;28;20439;-69
2024/01/03 12:42:58;;;;;;;17.83;8.25;;;;;;;;;;5067659;28;20039;-70
2024/01/03 12:45:24;;;;;;;23.00;12.48;;;;;;;;;;5070503;28;20787;-70
2024/01/03 12:47:49;;;;;;;13.60;9.00;;;;;;;;;;5087154;28;20103;-69
2024/01/03 12:50:16;;;;;;;15.93;10.82;;;;;;;;;;5081827;28;20021;-69
2024/01/03 12:52:42;;;;;;;21.13;10.52;;;;;;;;;;5066819;28;20048;-69
2024/01/03 12:55:08;;;;;;;22.27;12.85;;;;;;;;;;5066159;28;20035;-69
2024/01/03 12:57:34;;;;;;;10.02;7.70;;;;;;;;;;5066952;28;20040;-69
2024/01/03 13:00:01;;;;;;;88.93;31.20;;;;;;;;;;5083499;28;20033;-70
2024/01/03 13:02:31;;;;;;;24.98;13.73;;;;;;;;;;5067790;28;20046;-69
2024/01/03 13:04:57;;;;;;;31.35;12.63;;;;;;;;;;5067744;28;20404;-69
2024/01/03 13:07:23;;;;;;;91.22;35.20;;;;;;;;;;5049425;28;20071;-69
2024/01/03 13:09:49;;;;;;;28.85;14.13;;;;;;;;;;5068073;28;20035;-69
2024/01/03 13:12:15;;;;;;;14.23;10.30;;;;;;;;;;5066619;28;20044;-69
2024/01/03 13:14:41;;;;;;;25.98;12.02;;;;;;;;;;5068212;28;20033;-70
2024/01/03 13:17:07;;;;;;;34.92;16.40;;;;;;;;;;5050132;28;20455;-69
2024/01/03 13:19:33;;;;;;;34.30;17.13;;;;;;;;;;5067746;28;20086;-69
2024/01/03 13:21:59;;;;;;;48.20;17.92;;;;;;;;;;5068246;28;20042;-70
2024/01/03 13:24:28;;;;;;;16.25;9.60;;;;;;;;;;5066834;28;20123;-69
2024/01/03 13:26:54;;;;;;;12.40;8.98;;;;;;;;;;5050196;28;20131;-69
2024/01/03 13:29:20;;;;;;;10.77;8.98;;;;;;;;;;5049192;28;20073;-70
2024/01/03 13:31:46;;;;;;;39.70;16.70;;;;;;;;;;5065964;28;20114;-69
2024/01/03 13:34:12;;;;;;;30.02;15.63;;;;;;;;;;5067463;28;20036;-69
2024/01/03 13:36:38;;;;;;;46.67;17.38;;;;;;;;;;5066359;28;20032;-69
2024/01/03 13:39:05;;;;;;;31.83;12.38;;;;;;;;;;5067588;28;20420;-69
2024/01/03 13:41:31;;;;;;;46.53;14.93;;;;;;;;;;5065781;28;20117;-69
2024/01/03 13:43:59;;;;;;;21.33;11.05;;;;;;;;;;5033035;28;20047;-69
2024/01/03 13:46:26;;;;;;;61.20;21.25;;;;;;;;;;5077735;28;20075;-70
2024/01/03 13:48:52;;;;;;;23.17;12.75;;;;;;;;;;5094595;28;20028;-69
2024/01/03 13:51:21;;;;;;;15.48;9.05;;;;;;;;;;5069927;28;20035;-70
2024/01/03 13:53:47;;;;;;;40.13;17.02;;;;;;;;;;5067503;28;20044;-69
2024/01/03 13:56:17;;;;;;;9.27;8.18;;;;;;;;;;5078538;28;20035;-69
2024/01/03 13:58:46;;;;;;;14.82;9.40;;;;;;;;;;5083812;28;20028;-68
2024/01/03 14:01:12;;;;;;;38.33;12.07;;;;;;;;;;5068290;28;20033;-69
2024/01/03 14:03:38;;;;;;;28.83;11.15;;;;;;;;;;5067403;28;20090;-69
2024/01/03 14:06:05;;;;;;;30.17;9.93;;;;;;;;;;5083053;28;20036;-69
2024/01/03 14:08:31;;;;;;;16.98;8.70;;;;;;;;;;5093800;28;20108;-68
2024/01/03 14:10:57;;;;;;;15.18;6.20;;;;;;;;;;5095649;28;20013;-70
2024/01/03 14:13:23;;;;;;;7.75;4.45;;;;;;;;;;5084050;28;20185;-69
2024/01/03 14:15:49;;;;;;;7.25;6.65;;;;;;;;;;5070781;28;20029;-69
2024/01/03 14:18:14;;;;;;;18.05;9.63;;;;;;;;;;5070091;28;20032;-69
2024/01/03 14:20:40;;;;;;;10.50;7.60;;;;;;;;;;5071544;28;20096;-69
2024/01/03 14:23:06;;;;;;;14.73;9.85;;;;;;;;;;5071391;28;20497;-69
2024/01/03 14:25:32;;;;;;;8.88;7.45;;;;;;;;;;5052525;28;20040;-69
2024/01/03 14:27:58;;;;;;;54.35;20.42;;;;;;;;;;5069725;28;20033;-69
2024/01/03 14:30:27;;;;;;;19.60;9.70;;;;;;;;;;5086928;28;20024;-69
2024/01/03 14:32:53;;;;;;;19.38;10.82;;;;;;;;;;5071530;28;20268;-69
2024/01/03 14:35:19;;;;;;;38.13;19.23;;;;;;;;;;5065259;28;20086;-69